Time;durP1;ratioP1;P1;durP2;ratioP2;P2;SDS_P1;SDS_P2;PMS_P1;PMS_P2;Temp;Humidity;BMP_temperature;BMP_pressure;BME280_temperature;BME280_humidity;BME280_pressure;Samples;Min_cycle;Max_cycle;Signal;HPM_P1;HPM_P2
2020/12/15 00:01:55;;;;;;;2.70;2.10;;;15.50;93.30;;;15.86;47.14;100413.22;4886030;28;97742;-64
2020/12/15 00:04:21;;;;;;;2.00;1.80;;;15.70;93.00;;;15.94;46.85;100408.31;4881796;28;102858;-63
2020/12/15 00:06:47;;;;;;;2.87;2.30;;;15.80;92.70;;;15.88;45.30;100392.69;4869347;28;97605;-64
2020/12/15 00:09:14;;;;;;;1.77;1.60;;;15.70;91.90;;;15.93;46.89;100403.94;4897108;28;97166;-62
2020/12/15 00:11:40;;;;;;;1.67;1.50;;;15.70;93.10;;;16.01;47.06;100391.00;4869838;28;99734;-64
2020/12/15 00:14:06;;;;;;;2.33;1.80;;;15.80;93.10;;;15.86;46.02;100394.59;4897047;28;106130;-60
2020/12/15 00:16:31;;;;;;;2.10;1.90;;;15.70;91.90;;;15.82;46.29;100393.94;4885847;28;98167;-64
2020/12/15 00:18:57;;;;;;;2.00;1.73;;;15.60;92.80;;;15.80;46.04;100395.00;4904676;28;97790;-64
2020/12/15 00:21:26;;;;;;;1.97;1.50;;;15.50;92.70;;;15.89;46.31;100400.59;4880290;28;101567;-64
2020/12/15 00:23:54;;;;;;;1.70;1.60;;;15.60;93.20;;;15.80;46.94;100400.31;4901509;28;99320;-65
2020/12/15 00:26:21;;;;;;;1.93;1.73;;;15.50;92.30;;;15.83;47.50;100405.44;4885996;28;98601;-63
2020/12/15 00:28:51;;;;;;;2.87;2.30;;;15.40;93.40;;;15.71;47.46;100418.53;4901294;28;97032;-63
2020/12/15 00:31:19;;;;;;;3.43;2.73;;;15.40;93.40;;;15.45;48.72;100416.53;4885708;28;100585;-65
2020/12/15 00:33:46;;;;;;;3.57;1.93;;;15.00;94.90;;;15.38;48.70;100420.53;4897299;28;103864;-64
2020/12/15 00:36:20;;;;;;;3.80;2.93;;;14.80;95.70;;;15.27;49.34;100417.63;4903097;28;97446;-64
2020/12/15 00:38:46;;;;;;;4.77;2.87;;;14.70;95.90;;;15.11;49.63;100410.56;4890098;28;97134;-60
2020/12/15 00:41:12;;;;;;;2.90;2.37;;;14.50;96.40;;;15.10;49.94;100416.81;4901858;28;99403;-61
2020/12/15 00:43:38;;;;;;;6.17;3.10;;;14.40;96.80;;;15.14;49.60;100413.03;4882425;28;106376;-61
2020/12/15 00:46:04;;;;;;;2.60;2.03;;;14.50;96.80;;;15.21;49.28;100415.34;4881407;28;97459;-61
2020/12/15 00:48:30;;;;;;;3.87;2.03;;;14.70;95.90;;;15.30;49.07;100405.03;4885508;28;97420;-61
2020/12/15 00:50:55;;;;;;;2.50;1.93;;;14.80;95.60;;;15.28;49.00;100414.88;4891502;28;106008;-61
2020/12/15 00:53:21;;;;;;;1.63;1.53;;;14.90;95.80;;;15.27;49.11;100417.63;4882665;28;108368;-61
2020/12/15 00:55:47;;;;;;;3.73;2.23;;;14.80;95.80;;;15.36;48.66;100409.13;4879495;28;97844;-61
2020/12/15 00:58:13;;;;;;;4.87;2.93;;;15.00;95.10;;;15.20;48.80;100413.66;4885653;28;97708;-61
2020/12/15 01:00:38;;;;;;;2.73;2.03;;;14.90;95.00;;;15.16;49.83;100416.47;4901400;28;97803;-60
2020/12/15 01:03:04;;;;;;;2.93;2.37;;;14.80;96.00;;;15.11;49.75;100405.25;4902712;28;106365;-61
2020/12/15 01:05:30;;;;;;;3.00;1.80;;;14.60;96.70;;;15.16;49.83;100410.28;4901767;28;97807;-61
2020/12/15 01:07:56;;;;;;;2.07;1.90;;;14.60;96.20;;;15.35;49.22;100407.44;4879382;28;101662;-61
2020/12/15 01:10:22;;;;;;;3.33;1.90;;;14.90;95.50;;;15.51;48.41;100410.88;4884286;28;102273;-61
2020/12/15 01:12:48;;;;;;;4.67;2.57;;;15.20;94.60;;;15.36;49.15;100406.47;4889145;28;100265;-62
2020/12/15 01:15:14;;;;;;;5.47;3.20;;;15.20;94.90;;;15.37;49.07;100413.50;4878037;28;97657;-62
2020/12/15 01:17:40;;;;;;;3.27;2.50;;;15.10;94.90;;;15.35;49.33;100410.94;4898755;28;97109;-62
2020/12/15 01:20:06;;;;;;;4.17;2.70;;;15.00;95.50;;;15.22;49.57;100420.56;4883755;28;98965;-62
2020/12/15 01:22:32;;;;;;;3.27;2.03;;;14.70;96.50;;;15.25;49.22;100407.09;4884620;28;108270;-64
2020/12/15 01:24:57;;;;;;;1.73;1.60;;;14.80;96.20;;;15.12;nan;100409.63;4900936;28;97142;-63
2020/12/15 01:27:23;;;;;;;3.77;2.47;;;14.70;96.80;;;15.26;49.31;100400.84;4879385;28;98315;-62
2020/12/15 01:29:49;;;;;;;2.43;1.87;;;14.90;95.70;;;15.39;48.88;100401.81;4872531;28;100106;-64
2020/12/15 01:32:15;;;;;;;2.67;2.07;;;15.10;95.20;;;15.56;48.22;100410.59;4881321;28;97924;-63
2020/12/15 01:34:41;;;;;;;3.33;2.27;;;15.30;94.50;;;15.53;48.30;100414.28;4866833;28;102029;-64
2020/12/15 01:37:06;;;;;;;2.40;1.93;;;15.40;94.40;;;15.51;48.97;100416.19;4901363;28;97026;-63
2020/12/15 01:39:32;;;;;;;2.93;2.07;;;15.20;95.50;;;15.62;48.29;100419.09;4897798;28;100574;-60
2020/12/15 01:41:58;;;;;;;2.33;2.00;;;15.30;94.60;;;15.58;48.25;100416.66;4902167;28;101716;-64
2020/12/15 01:44:24;;;;;;;2.27;2.03;;;15.30;94.70;;;15.76;47.43;100411.13;4885435;28;97530;-63
2020/12/15 01:46:51;;;;;;;4.00;3.57;;;15.50;94.00;;;15.56;49.51;100424.75;4885404;28;99560;-64
2020/12/15 01:49:18;;;;;;;3.23;2.43;;;15.30;95.20;;;15.41;49.30;100415.03;4904559;28;99904;-63
2020/12/15 01:51:48;;;;;;;2.00;1.80;;;15.10;95.30;;;15.46;48.76;100418.25;4882439;28;99787;-62
2020/12/15 01:54:14;;;;;;;2.60;2.17;;;15.00;95.50;;;15.56;48.02;100419.41;4874219;28;97237;-60
2020/12/15 01:56:40;;;;;;;2.30;2.03;;;15.20;94.70;;;15.45;49.05;100419.19;4875822;28;99526;-64
2020/12/15 01:59:06;;;;;;;2.33;1.90;;;15.10;95.60;;;15.53;49.07;100422.28;4889572;28;99636;-62
2020/12/15 02:01:44;;;;;;;2.20;1.70;;;15.20;95.30;;;15.60;48.48;100415.66;4885596;28;97116;-64
2020/12/15 02:04:10;;;;;;;3.40;1.80;;;15.30;94.80;;;15.63;48.57;100404.00;4885296;28;97721;-62
2020/12/15 02:06:36;;;;;;;2.47;1.83;;;15.30;95.10;;;15.65;48.56;100404.75;4892482;28;98796;-66
2020/12/15 02:09:06;;;;;;;1.47;1.33;;;15.40;95.00;;;15.74;47.59;100402.38;4879623;28;102981;-63
2020/12/15 02:11:32;;;;;;;2.07;1.83;;;15.50;94.40;;;15.91;47.77;100400.50;4868089;28;99662;-62
2020/12/15 02:13:58;;;;;;;7.53;3.10;;;15.70;94.10;;;15.74;49.10;100406.84;4861761;28;97216;-63
2020/12/15 02:16:26;;;;;;;2.60;2.03;;;15.70;94.70;;;15.89;47.64;100405.06;4867369;28;99750;-63
2020/12/15 02:18:52;;;;;;;2.67;2.30;;;15.80;93.70;;;15.76;48.16;100411.13;4842059;28;100668;-62
2020/12/15 02:21:18;;;;;;;2.00;1.73;;;15.60;94.40;;;15.83;48.23;100408.09;4881778;28;116480;-62
2020/12/15 02:23:43;;;;;;;5.77;3.00;;;15.50;94.60;;;15.60;48.90;100410.34;4865615;28;98896;-63
2020/12/15 02:26:10;;;;;;;1.70;1.60;;;15.30;95.20;;;15.54;49.13;100404.50;4861436;28;99535;-63
2020/12/15 02:28:36;;;;;;;1.60;1.50;;;15.10;96.30;;;15.61;48.56;100401.41;4890793;28;102104;-61
2020/12/15 02:31:02;;;;;;;5.73;2.80;;;15.20;95.30;;;15.73;47.95;100406.00;4913721;28;104899;-63
2020/12/15 02:33:30;;;;;;;3.30;3.00;;;15.40;94.40;;;15.49;50.18;100407.47;4901460;28;97582;-62
2020/12/15 02:35:59;;;;;;;2.20;1.77;;;15.20;95.70;;;15.63;48.74;100404.88;4919904;28;96905;-63
2020/12/15 02:38:25;;;;;;;3.17;1.70;;;15.30;95.10;;;15.70;48.44;100398.22;4880173;28;100319;-62
2020/12/15 02:40:51;;;;;;;3.00;2.40;;;15.30;95.00;;;15.79;48.44;100385.31;4918795;28;113100;-63
2020/12/15 02:43:17;;;;;;;1.63;1.53;;;15.50;94.50;;;16.06;47.68;100384.47;4897305;28;98660;-63
2020/12/15 02:45:43;;;;;;;2.57;2.33;;;15.90;93.80;;;16.26;47.21;100387.66;4921725;28;99326;-63
2020/12/15 02:48:08;;;;;;;2.00;1.90;;;16.20;93.20;;;16.19;47.14;100395.16;4909758;28;100021;-62
2020/12/15 02:50:35;;;;;;;4.23;2.30;;;16.20;93.40;;;16.25;46.84;100389.47;4912211;28;98310;-62
2020/12/15 02:53:01;;;;;;;2.93;2.43;;;16.20;93.00;;;16.18;47.32;100401.44;4917664;28;97144;-63
2020/12/15 02:55:26;;;;;;;2.43;2.23;;;16.10;93.70;;;16.22;46.94;100396.78;4898888;28;96706;-64
2020/12/15 02:57:52;;;;;;;3.20;2.90;;;16.10;93.10;;;16.07;48.18;100401.28;4918351;28;100734;-63
2020/12/15 03:00:20;;;;;;;5.30;3.67;;;15.90;94.60;;;15.86;48.73;100427.38;4869183;28;98756;-63
2020/12/15 03:02:48;;;;;;;4.47;2.90;;;15.60;94.90;;;15.75;48.63;100425.38;4893227;28;97506;-63
2020/12/15 03:05:14;;;;;;;1.93;1.70;;;15.40;95.40;;;15.72;48.66;100420.25;4904660;28;99059;-63
2020/12/15 03:07:40;;;;;;;1.67;1.43;;;15.30;95.40;;;15.80;48.23;100405.63;4914196;28;97397;-63
2020/12/15 03:10:09;;;;;;;1.43;1.33;;;15.40;95.00;;;15.86;47.74;100410.56;4902118;28;99317;-63
2020/12/15 03:12:34;;;;;;;2.50;1.80;;;15.60;94.40;;;15.84;48.10;100402.69;4914143;28;97365;-65
2020/12/15 03:15:00;;;;;;;4.63;3.53;;;15.60;94.60;;;15.89;48.12;100405.06;4917933;28;97037;-62
2020/12/15 03:17:26;;;;;;;2.33;1.87;;;15.70;94.20;;;15.96;47.93;100401.09;4913995;28;119757;-62
2020/12/15 03:19:52;;;;;;;2.27;1.97;;;15.70;94.30;;;16.07;47.63;100393.28;4883317;28;97059;-64
2020/12/15 03:22:18;;;;;;;2.17;1.90;;;15.90;93.80;;;16.21;46.81;100387.97;4916623;28;111708;-64
2020/12/15 03:24:44;;;;;;;1.93;1.47;;;16.20;93.10;;;16.33;47.00;100391.63;4916491;28;111988;-63
2020/12/15 03:27:10;;;;;;;1.80;1.70;;;16.30;93.10;;;16.45;46.57;100387.34;4878840;28;99249;-62
2020/12/15 03:29:35;;;;;;;2.73;2.00;;;16.50;92.60;;;16.56;46.41;100376.84;4901018;28;97109;-60
2020/12/15 03:32:02;;;;;;;2.70;2.00;;;16.60;92.50;;;16.48;46.51;100381.81;4901842;28;101150;-62
2020/12/15 03:34:27;;;;;;;2.33;1.90;;;16.50;92.40;;;16.51;46.23;100382.47;4902694;28;97203;-62
2020/12/15 03:36:53;;;;;;;4.37;2.63;;;16.50;92.50;;;16.45;46.63;100388.19;4898970;28;99544;-64
2020/12/15 03:39:19;;;;;;;2.43;1.73;;;16.40;92.80;;;16.54;46.42;100397.41;4893948;28;115297;-63
2020/12/15 03:41:45;;;;;;;2.43;1.83;;;16.50;92.60;;;16.58;45.58;100396.25;4900405;28;102406;-60
2020/12/15 03:44:11;;;;;;;2.10;1.60;;;16.60;92.10;;;16.60;46.09;100391.66;4897313;28;109263;-59
2020/12/15 03:46:37;;;;;;;2.37;1.73;;;16.50;92.20;;;16.47;46.85;100396.06;4897869;28;98975;-62
2020/12/15 03:49:03;;;;;;;2.23;1.97;;;16.40;92.90;;;16.36;46.87;100394.97;4920749;28;98235;-62
2020/12/15 03:51:29;;;;;;;2.50;2.17;;;16.30;93.00;;;16.23;47.48;100394.03;4891715;28;105991;-62
2020/12/15 03:53:54;;;;;;;3.63;3.30;;;16.00;93.70;;;16.15;47.47;100391.00;4919350;28;97802;-60
2020/12/15 03:56:20;;;;;;;3.97;2.80;;;15.90;93.70;;;16.26;46.98;100382.34;4895046;28;100479;-63
2020/12/15 03:58:46;;;;;;;3.27;2.33;;;16.00;93.10;;;16.18;47.06;100390.78;4896696;28;105171;-62
2020/12/15 04:01:12;;;;;;;1.93;1.83;;;16.10;93.30;;;16.25;47.04;100391.28;4897965;28;98478;-61
2020/12/15 04:03:37;;;;;;;2.03;1.83;;;16.00;93.50;;;16.21;47.13;100390.63;4912675;28;99087;-62
2020/12/15 04:06:04;;;;;;;2.20;1.90;;;16.00;93.70;;;16.16;47.34;100392.69;4914356;28;105531;-62
2020/12/15 04:08:30;;;;;;;2.43;1.93;;;16.00;93.40;;;16.12;47.52;100391.19;4892864;28;98462;-60
2020/12/15 04:10:55;;;;;;;4.10;2.30;;;15.90;93.60;;;16.08;47.59;100395.00;4896269;28;96847;-63
2020/12/15 04:13:21;;;;;;;2.10;1.53;;;15.90;93.80;;;16.10;47.51;100398.41;4897873;28;107921;-64
2020/12/15 04:15:47;;;;;;;6.30;3.57;;;15.80;94.00;;;15.98;48.02;100394.72;4907579;28;98593;-61
2020/12/15 04:18:13;;;;;;;1.70;1.40;;;15.80;94.10;;;16.10;47.68;100397.56;4885439;28;99221;-64
2020/12/15 04:20:39;;;;;;;2.90;2.53;;;15.90;93.70;;;16.05;47.95;100389.84;4909648;28;97587;-62
2020/12/15 04:23:05;;;;;;;2.40;1.63;;;15.80;94.20;;;16.03;47.65;100387.28;4903485;28;96674;-63
2020/12/15 04:25:31;;;;;;;1.93;1.83;;;15.70;94.20;;;16.15;46.99;100400.78;4915345;28;114970;-64
2020/12/15 04:27:57;;;;;;;3.57;2.30;;;16.00;93.20;;;16.07;47.93;100401.28;4905525;28;98296;-63
2020/12/15 04:30:22;;;;;;;5.57;2.87;;;16.00;94.00;;;16.08;47.82;100402.97;4885237;28;104982;-62
2020/12/15 04:32:49;;;;;;;2.17;1.93;;;15.80;94.00;;;16.00;48.52;100392.81;4909024;28;97466;-63
2020/12/15 04:35:15;;;;;;;2.53;2.20;;;15.80;94.60;;;16.04;47.97;100398.78;4896569;28;99939;-63
2020/12/15 04:37:41;;;;;;;3.40;2.13;;;15.80;94.10;;;16.02;47.75;100395.38;4918457;28;98723;-60
2020/12/15 04:40:07;;;;;;;2.20;2.00;;;15.80;94.00;;;16.04;47.82;100390.78;4870929;28;99691;-62
2020/12/15 04:42:35;;;;;;;2.53;2.00;;;15.80;94.20;;;16.13;47.49;100392.91;4877943;28;97265;-63
2020/12/15 04:45:00;;;;;;;4.80;2.23;;;15.90;93.50;;;16.26;47.05;100383.19;4870155;28;109520;-63
2020/12/15 04:47:42;;;;;;;2.60;1.73;;;16.20;93.10;;;16.14;47.46;100381.31;4895892;28;110712;-61
2020/12/15 04:50:11;;;;;;;3.60;3.10;;;16.00;93.30;;;16.13;47.55;100382.25;4877813;28;97176;-60
2020/12/15 04:52:53;;;;;;;4.20;3.60;;;15.90;93.80;;;15.69;50.39;100399.16;4879505;28;97653;-62
2020/12/15 04:55:24;;;;;;;4.13;3.23;;;15.50;95.30;;;15.55;50.64;100396.44;4864434;28;100325;-62
2020/12/15 04:57:52;;;;;;;2.93;2.63;;;15.20;96.40;;;15.59;49.12;100399.78;4889765;28;100200;-63
2020/12/15 05:00:19;;;;;;;3.87;2.70;;;15.20;95.80;;;15.52;49.20;100404.63;4889549;28;97055;-62
2020/12/15 05:02:52;;;;;;;2.43;2.00;;;15.00;96.20;;;15.40;49.77;100400.88;4879179;28;96717;-62
2020/12/15 05:05:20;;;;;;;1.97;1.87;;;14.90;96.30;;;15.38;50.39;100393.94;4886317;28;104329;-65
2020/12/15 05:07:46;;;;;;;5.37;4.53;;;15.00;96.40;;;15.07;52.35;100401.06;4885484;28;101136;-61
2020/12/15 05:10:18;;;;;;;2.93;2.60;;;14.70;97.70;;;15.27;50.19;100407.00;4897358;28;97124;-61
2020/12/15 05:12:46;;;;;;;5.20;3.83;;;14.80;97.20;;;15.13;51.04;100405.16;4908718;28;97878;-62
2020/12/15 05:15:14;;;;;;;3.23;2.57;;;14.70;97.90;;;15.07;52.18;100408.19;4895766;28;100331;-63
2020/12/15 05:17:41;;;;;;;2.43;2.10;;;14.50;98.20;;;14.97;51.55;100401.69;4890148;28;97226;-61
2020/12/15 05:20:24;;;;;;;3.50;3.20;;;14.40;98.70;;;15.09;50.53;100404.50;4916796;28;97475;-63
2020/12/15 05:22:50;;;;;;;4.40;3.30;;;14.50;97.80;;;14.98;51.49;100412.22;4876943;28;98186;-64
2020/12/15 05:25:30;;;;;;;2.17;1.97;;;14.50;98.40;;;15.20;50.57;100408.34;4898834;28;113244;-63
2020/12/15 05:27:59;;;;;;;4.00;3.23;;;14.70;97.00;;;15.13;51.43;100414.00;4866037;28;98696;-64
2020/12/15 05:30:26;;;;;;;6.77;4.20;;;14.80;97.30;;;15.15;51.03;100404.13;4889065;28;96894;-62
2020/12/15 05:32:55;;;;;;;2.20;2.00;;;14.80;97.40;;;15.27;50.27;100409.66;4876835;28;101389;-63
2020/12/15 05:35:27;;;;;;;6.43;3.60;;;14.80;97.30;;;15.30;50.43;100413.00;4899384;28;100480;-63
2020/12/15 05:37:58;;;;;;;3.53;2.80;;;14.90;97.10;;;15.41;49.82;100409.72;4900537;28;97207;-63
2020/12/15 05:40:24;;;;;;;2.00;1.80;;;15.00;96.20;;;15.35;50.56;100399.44;4916693;28;97052;-63
2020/12/15 05:42:55;;;;;;;2.60;2.40;;;15.00;97.00;;;15.64;49.01;100403.06;4897517;28;98253;-61
2020/12/15 05:45:22;;;;;;;5.33;4.23;;;15.30;95.30;;;15.55;50.06;100408.88;4896551;28;103350;-63
2020/12/15 05:47:49;;;;;;;2.43;1.97;;;15.30;96.40;;;15.57;49.37;100404.31;4909109;28;98508;-62
2020/12/15 05:50:25;;;;;;;2.67;2.47;;;15.20;96.10;;;15.28;51.98;100408.72;4912095;28;96785;-64
2020/12/15 05:52:56;;;;;;;4.43;4.00;;;14.90;97.70;;;15.07;53.29;100417.00;4911243;28;97477;-63
2020/12/15 05:55:22;;;;;;;3.03;2.20;;;14.60;98.60;;;15.18;50.93;100409.25;4910714;28;100721;-64
2020/12/15 05:57:48;;;;;;;4.77;3.50;;;14.70;97.90;;;15.16;51.26;100411.16;4898641;28;98252;-64
2020/12/15 06:00:14;;;;;;;6.23;4.30;;;14.60;98.00;;;15.04;51.97;100406.53;4909896;28;97145;-61
2020/12/15 06:02:43;;;;;;;4.30;3.90;;;14.60;98.50;;;15.09;51.73;100412.47;4902834;28;97195;-62
2020/12/15 06:05:10;;;;;;;2.00;1.70;;;14.60;98.80;;;15.24;50.59;100413.38;4900647;28;98232;-63
2020/12/15 06:07:37;;;;;;;1.70;1.53;;;14.70;97.40;;;15.32;50.32;100410.25;4882558;28;98520;-64
2020/12/15 06:10:04;;;;;;;4.90;3.77;;;14.90;97.30;;;15.40;50.22;100411.50;4877708;28;97110;-64
2020/12/15 06:12:30;;;;;;;2.73;2.53;;;15.00;96.80;;;15.47;50.22;100409.31;4909059;28;97527;-63
2020/12/15 06:14:56;;;;;;;3.03;1.77;;;15.10;96.80;;;15.58;49.47;100406.88;4886499;28;99831;-63
2020/12/15 06:17:23;;;;;;;6.03;3.27;;;15.20;96.40;;;15.62;50.17;100413.78;4912540;28;97149;-63
2020/12/15 06:19:52;;;;;;;3.77;3.27;;;15.30;96.30;;;15.74;49.11;100410.34;4897683;28;96852;-63
2020/12/15 06:22:22;;;;;;;2.53;2.27;;;15.50;95.80;;;15.80;49.32;100410.97;4915802;28;97486;-62
2020/12/15 06:25:01;;;;;;;2.10;1.73;;;15.60;95.30;;;16.03;48.57;100415.69;4896815;28;100624;-63
2020/12/15 06:27:36;;;;;;;2.90;2.50;;;15.80;95.00;;;16.23;47.97;100417.97;4909453;28;98632;-61
2020/12/15 06:30:04;;;;;;;2.30;2.10;;;16.20;94.20;;;16.30;47.67;100416.63;4879057;28;100423;-61
2020/12/15 06:32:30;;;;;;;4.63;3.80;;;16.20;94.20;;;16.31;47.73;100418.34;4900856;28;97482;-61
2020/12/15 06:34:56;;;;;;;6.63;5.23;;;16.30;94.00;;;16.17;48.79;100415.69;4897235;28;116476;-61
2020/12/15 06:37:24;;;;;;;1.97;1.83;;;16.10;95.00;;;16.25;47.74;100423.22;4917604;28;99378;-61
2020/12/15 06:39:59;;;;;;;4.80;4.33;;;16.10;94.50;;;16.04;48.57;100418.25;4882327;28;103316;-61
2020/12/15 06:42:27;;;;;;;4.43;4.03;;;15.80;95.80;;;16.17;48.22;100425.47;4913276;28;102579;-61
2020/12/15 06:45:04;;;;;;;2.00;1.80;;;15.90;94.70;;;16.20;47.88;100420.84;4889930;28;102974;-61
2020/12/15 06:47:31;;;;;;;3.27;2.77;;;15.90;94.50;;;16.12;49.33;100411.63;4903506;28;99359;-61
2020/12/15 06:50:12;;;;;;;5.40;4.33;;;16.00;95.00;;;16.21;47.99;100416.38;4913190;28;96660;-62
2020/12/15 06:52:38;;;;;;;3.90;2.30;;;15.90;94.70;;;16.30;47.79;100411.31;4907608;28;97025;-61
2020/12/15 06:55:04;;;;;;;4.97;2.97;;;16.10;94.00;;;16.49;46.92;100410.13;4892480;28;100350;-61
2020/12/15 06:57:32;;;;;;;2.80;2.57;;;16.40;93.40;;;16.44;47.83;100412.25;4901970;28;103609;-61
2020/12/15 07:00:00;;;;;;;3.20;2.67;;;16.40;93.60;;;16.29;49.38;100425.56;4896255;28;96946;-61
2020/12/15 07:02:32;;;;;;;5.37;4.30;;;16.20;95.30;;;16.18;48.82;100430.72;4884131;28;101252;-61
2020/12/15 07:05:31;;;;;;;1.70;1.60;;;16.00;95.60;;;16.26;47.72;100433.75;4897641;28;100137;-61
2020/12/15 07:07:59;;;;;;;6.97;5.97;;;15.90;94.70;;;15.97;49.50;100434.72;4876569;28;100113;-61
2020/12/15 07:10:28;;;;;;;3.37;3.07;;;15.70;96.10;;;15.83;51.22;100443.53;4911518;28;97330;-61
2020/12/15 07:13:01;;;;;;;7.43;5.90;;;15.50;96.90;;;15.54;53.38;100442.59;4882064;28;97114;-61
2020/12/15 07:15:29;;;;;;;2.47;2.00;;;15.20;98.20;;;15.56;49.90;100450.47;4913996;28;97733;-61
2020/12/15 07:17:56;;;;;;;5.33;4.40;;;15.00;97.90;;;15.30;53.19;100452.00;4884527;28;100070;-61
2020/12/15 07:20:23;;;;;;;6.80;6.13;;;14.80;99.40;;;15.16;52.70;100447.47;4912894;28;97533;-64
2020/12/15 07:22:56;;;;;;;7.23;3.63;;;14.60;99.90;;;15.21;53.58;100457.88;4983804;23;97686;-61
2020/12/15 07:25:21;;;;;;;13.97;7.80;;;14.60;99.70;;;14.82;55.77;100451.22;4910561;28;102326;-61
2020/12/15 07:27:48;;;;;;;3.83;3.30;;;14.40;99.90;;;14.91;54.87;100466.66;4895066;28;100303;-61
2020/12/15 07:30:20;;;;;;;8.13;6.60;;;14.30;99.90;;;14.78;55.94;100468.28;4928073;28;97235;-61
2020/12/15 07:32:47;;;;;;;3.80;3.13;;;14.30;99.90;;;14.78;55.18;100462.97;4880158;28;98712;-61
2020/12/15 07:35:25;;;;;;;25.10;10.03;;;14.20;99.90;;;14.67;55.53;100468.00;4899754;28;97645;-61
2020/12/15 07:37:58;;;;;;;2.67;2.13;;;14.10;99.90;;;14.88;51.77;100464.13;4879331;28;102872;-61
2020/12/15 07:40:30;;;;;;;7.60;4.73;;;14.30;99.70;;;14.95;52.12;100465.53;4895341;28;97952;-61
2020/12/15 07:43:02;;;;;;;8.37;5.93;;;14.40;99.90;;;15.02;52.22;100464.22;4880908;28;96864;-61
2020/12/15 07:45:32;;;;;;;4.30;3.57;;;14.60;99.70;;;14.99;54.88;100466.19;4912921;28;96773;-61
2020/12/15 07:47:59;;;;;;;4.03;3.70;;;14.60;99.90;;;15.10;52.17;100469.09;4903242;28;98811;-61
2020/12/15 07:50:30;;;;;;;6.83;5.17;;;14.70;99.50;;;15.17;52.52;100479.28;4885964;28;96991;-61
2020/12/15 07:53:07;;;;;;;2.17;1.90;;;14.80;99.00;;;15.31;51.05;100474.97;4890487;28;97050;-61
2020/12/15 07:55:32;;;;;;;2.57;1.70;;;14.90;97.70;;;15.43;50.39;100471.59;4884389;28;99136;-61
2020/12/15 07:57:58;;;;;;;4.57;2.77;;;15.10;97.30;;;15.62;49.94;100474.94;4909157;28;104563;-62
2020/12/15 08:00:24;;;;;;;2.00;1.50;;;15.40;96.60;;;15.84;48.87;100476.28;4899006;28;96548;-61
2020/12/15 08:02:51;;;;;;;6.67;5.73;;;15.70;95.60;;;15.79;50.03;100473.06;4900158;28;97395;-61
2020/12/15 08:05:23;;;;;;;1.53;1.43;;;15.60;96.40;;;16.01;48.90;100470.81;4897861;28;113417;-61
2020/12/15 08:08:07;;;;;;;7.43;6.40;;;15.90;95.30;;;16.08;48.66;100469.50;4915154;28;102719;-61
2020/12/15 08:10:35;;;;;;;2.23;2.03;;;16.00;95.90;;;16.12;48.83;100476.34;4898386;28;96699;-61
2020/12/15 08:13:04;;;;;;;3.33;3.03;;;16.00;95.90;;;16.29;47.77;100468.16;4889207;28;97275;-61
2020/12/15 08:15:37;;;;;;;2.00;1.80;;;16.20;94.50;;;16.35;48.05;100462.47;4895452;28;99143;-62
2020/12/15 08:18:07;;;;;;;2.23;2.00;;;16.20;94.60;;;16.44;47.66;100470.81;4912488;28;98257;-61
2020/12/15 08:20:34;;;;;;;2.10;1.60;;;16.40;94.20;;;16.56;47.18;100470.03;4881302;28;97368;-61
2020/12/15 08:23:14;;;;;;;3.03;2.63;;;16.50;94.00;;;16.70;46.83;100467.38;4900630;28;97161;-63
2020/12/15 08:25:46;;;;;;;2.77;2.13;;;16.70;93.50;;;16.82;46.63;100471.06;4887600;28;100145;-61
2020/12/15 08:28:21;;;;;;;1.63;1.53;;;16.90;93.20;;;16.88;46.59;100471.53;4899178;28;99373;-61
2020/12/15 08:30:54;;;;;;;4.43;4.03;;;16.90;92.90;;;16.83;46.55;100478.13;4896925;28;98577;-61
2020/12/15 08:33:30;;;;;;;2.50;1.90;;;16.80;93.30;;;16.90;46.35;100480.28;4896259;28;98777;-61
2020/12/15 08:35:57;;;;;;;1.93;1.50;;;16.90;92.90;;;16.90;46.43;100480.28;4879642;28;103326;-61
2020/12/15 08:38:27;;;;;;;3.53;2.10;;;16.90;92.80;;;16.93;45.98;100474.78;4917060;28;98698;-61
2020/12/15 08:41:05;;;;;;;4.67;2.97;;;17.00;92.80;;;17.05;46.16;100477.56;4899668;28;120530;-61
2020/12/15 08:43:31;;;;;;;5.43;3.37;;;17.10;92.40;;;17.02;46.43;100483.09;4898402;28;97372;-61
2020/12/15 08:45:57;;;;;;;6.23;5.47;;;17.10;92.80;;;16.97;47.04;100496.72;4884913;28;105177;-61
2020/12/15 08:48:25;;;;;;;3.07;1.83;;;17.00;93.20;;;16.99;46.01;100493.97;4908666;28;99166;-61
2020/12/15 08:50:52;;;;;;;5.97;4.83;;;17.00;92.80;;;16.82;48.27;100493.25;4895479;28;97611;-61
2020/12/15 08:53:20;;;;;;;3.63;2.90;;;16.80;93.90;;;16.64;47.99;100489.06;4899845;28;97082;-61
2020/12/15 08:55:47;;;;;;;3.10;2.80;;;16.50;94.80;;;16.77;46.74;100490.00;4894911;28;100178;-61
2020/12/15 08:58:14;;;;;;;2.27;1.70;;;16.70;93.40;;;16.83;46.50;100483.44;4883631;28;99845;-61
2020/12/15 09:00:42;;;;;;;2.23;2.03;;;16.70;93.20;;;16.84;46.54;100501.13;4896927;28;98200;-61
2020/12/15 09:03:17;;;;;;;3.20;2.87;;;16.80;92.90;;;16.74;46.96;100494.66;4877493;28;97017;-61
2020/12/15 09:05:51;;;;;;;2.90;1.80;;;16.60;93.70;;;16.76;46.88;100498.09;4898640;28;98669;-61
2020/12/15 09:08:18;;;;;;;4.80;4.30;;;16.70;93.50;;;16.77;46.63;100500.66;4890196;28;99877;-61
2020/12/15 09:10:44;;;;;;;2.10;1.90;;;16.70;93.20;;;16.81;47.00;100502.19;4897663;28;97340;-61
2020/12/15 09:13:10;;;;;;;3.27;2.00;;;16.70;93.50;;;16.89;46.51;100499.88;4883066;28;97013;-61
2020/12/15 09:15:52;;;;;;;2.87;1.90;;;16.90;92.90;;;16.91;46.51;100503.28;4912221;28;100332;-62
2020/12/15 09:18:33;;;;;;;2.67;2.00;;;16.90;92.90;;;16.73;47.41;100507.13;4897644;28;99869;-61
2020/12/15 09:21:18;;;;;;;4.00;3.27;;;16.70;94.40;;;16.64;47.96;100518.34;4899471;28;97482;-61
2020/12/15 09:23:50;;;;;;;6.97;6.30;;;16.50;95.40;;;16.46;48.29;100524.81;4891701;28;97091;-61
2020/12/15 09:26:17;;;;;;;1.73;1.57;;;16.20;96.10;;;16.55;47.17;100516.25;4908796;28;99803;-61
2020/12/15 09:28:43;;;;;;;3.87;3.40;;;16.30;94.00;;;16.58;47.36;100516.06;4901133;28;97174;-61
2020/12/15 09:31:14;;;;;;;3.03;2.77;;;16.40;94.00;;;16.48;47.70;100509.59;4911087;28;97229;-61
2020/12/15 09:33:41;;;;;;;3.80;3.20;;;16.30;94.70;;;16.46;47.96;100527.47;4898189;28;98423;-62
2020/12/15 09:36:07;;;;;;;4.30;3.90;;;16.30;94.50;;;16.46;47.98;100520.34;4894932;28;98441;-62
2020/12/15 09:38:33;;;;;;;3.53;2.43;;;16.30;95.00;;;16.45;47.66;100515.09;4879349;28;102665;-62
2020/12/15 09:40:59;;;;;;;5.10;4.60;;;16.30;94.90;;;16.44;48.11;100513.41;4913507;28;99513;-61
2020/12/15 09:43:25;;;;;;;6.90;6.23;;;16.30;95.20;;;16.42;50.47;100525.97;4896979;28;98881;-61
2020/12/15 09:45:51;;;;;;;5.77;3.27;;;16.30;95.50;;;16.50;47.77;100523.69;4895516;28;99148;-61
2020/12/15 09:48:18;;;;;;;2.67;1.70;;;16.30;94.10;;;16.65;47.18;100514.75;4894088;28;97452;-61
2020/12/15 09:50:43;;;;;;;5.73;4.57;;;16.60;93.50;;;16.30;50.92;100525.75;4881678;28;97347;-62
2020/12/15 09:53:09;;;;;;;8.40;7.37;;;16.20;96.80;;;16.05;50.44;100521.06;4909468;28;98492;-61
2020/12/15 09:55:36;;;;;;;7.17;6.53;;;15.70;98.10;;;16.05;52.09;100522.88;4884367;28;98633;-61
2020/12/15 09:58:02;;;;;;;8.10;7.30;;;15.70;97.90;;;15.90;53.16;100523.78;4886726;28;97488;-61
2020/12/15 10:00:28;;;;;;;6.03;5.10;;;15.50;98.80;;;15.91;52.10;100514.84;4875146;28;111008;-61
2020/12/15 10:02:53;;;;;;;7.90;7.10;;;15.50;98.10;;;15.92;49.94;100514.78;4873228;28;97818;-62
2020/12/15 10:05:19;;;;;;;9.47;7.63;;;15.40;98.40;;;15.77;53.16;100519.22;4887846;28;101553;-61
2020/12/15 10:07:45;;;;;;;8.70;7.90;;;15.40;98.60;;;15.62;52.51;100525.44;4896125;28;98495;-61
2020/12/15 10:10:14;;;;;;;8.07;7.27;;;15.20;99.60;;;15.46;55.32;100530.75;4891822;28;106204;-61
2020/12/15 10:12:40;;;;;;;6.30;5.73;;;15.00;99.90;;;15.44;51.89;100527.31;4898039;28;98819;-62
2020/12/15 10:15:06;;;;;;;9.47;8.53;;;14.90;99.90;;;15.34;55.52;100525.31;4894185;28;110778;-61